Flight Track Log - Related Links

Times and Time Zones

All times are in EDT time to prevent confusion due to time zone crossing. See the N53NW flight status page for this flight to view local times or setup timezone preferences in your user account.

Time Position Orientation Groundspeed Altitude Reporting Facility
EDT Latitude Longitude Course Direction KTS MPH feet Rate Location/Type
Fri 06:37:09 PM 30.5031 -81.6775 North 163 188 600  Level Jacksonville Center
Fri 06:38:18 PM 30.5572 -81.6672 North 212 244 2,700 2,465 Climbing Jacksonville Center
Fri 06:39:18 PM 30.6386 -81.6733 356° North 252 290 5,900 3,000 Climbing Jacksonville Center
Fri 06:40:18 PM 30.7117 -81.6819 354° North 263 303 8,700 2,800 Climbing Jacksonville Center
Fri 06:41:18 PM 30.7808 -81.7150 338° Northwest 263 303 11,500 2,650 Climbing Jacksonville Center
Fri 06:42:18 PM 30.8442 -81.7675 325° Northwest 263 303 14,000 2,100 Climbing Jacksonville Center
Fri 06:43:18 PM 30.9072 -81.8200 324° Northwest 275 316 15,700 1,650 Climbing Jacksonville Center
Fri 06:44:18 PM 30.9767 -81.8772 325° Northwest 290 334 17,300 1,600 Climbing Jacksonville Center
Fri 06:45:18 PM 31.0561 -81.9153 338° Northwest 302 348 18,900 1,600 Climbing Jacksonville Center
Fri 06:46:18 PM 31.1381 -81.9556 337° Northwest 308 354 20,500 1,600 Climbing Jacksonville Center
Fri 06:47:18 PM 31.2217 -81.9936 339° North 315 362 22,100 1,600 Climbing Jacksonville Center
Fri 06:48:18 PM 31.3014 -82.0319 338° Northwest 310 357 23,700 1,550 Climbing Jacksonville Center
Fri 06:49:18 PM 31.3808 -82.0725 336° Northwest 310 357 25,200 1,400 Climbing Jacksonville Center
Fri 06:50:18 PM 31.4625 -82.1108 338° Northwest 317 365 26,500 900 Climbing Jacksonville Center
Fri 06:51:18 PM 31.5525 -82.1539 338° Northwest 317 365 27,000 250 Climbing Jacksonville Center
Fri 06:52:18 PM 31.6489 -82.1728 351° North 346 398 27,000  Level Jacksonville Center
Fri 06:54:21 PM 31.8625 -82.2072 352° North 390 449 27,000  Level Atlanta Center
Fri 06:55:21 PM 31.9633 -82.2567 337° Northwest 380 437 27,000  Level Atlanta Center
Fri 06:56:21 PM 32.0622 -82.3061 337° Northwest 375 432 27,000  Level Atlanta Center
Fri 06:57:21 PM 32.1608 -82.3558 337° Northwest 380 437 27,000  Level Atlanta Center
Fri 06:58:21 PM 32.2408 -82.3936 338° Northwest 380 437 27,000  Level Atlanta Center
Fri 06:59:21 PM 32.3478 -82.4481 337° Northwest 380 437 27,000  Level Atlanta Center
Fri 07:00:21 PM 32.4486 -82.4956 338° Northwest 380 437 27,000  Level Atlanta Center
Fri 07:01:21 PM 32.5494 -82.5528 334° Northwest 385 443 27,000 -500 Level Atlanta Center
Fri 07:02:21 PM 32.6522 -82.5956 341° North 385 443 26,000 -1,150 Descending Atlanta Center
Fri 07:03:21 PM 32.7511 -82.6508 335° Northwest 390 449 24,700 -1,350 Descending Atlanta Center
Fri 07:04:21 PM 32.8456 -82.7011 336° Northwest 377 434 23,300 -1,450 Descending Atlanta Center
Fri 07:05:21 PM 32.9378 -82.7469 337° Northwest 367 422 21,800 -1,700 Descending Atlanta Center
Fri 07:06:21 PM 33.0303 -82.7925 338° Northwest 361 415 19,900 -1,800 Descending Atlanta Center
Fri 07:07:21 PM 33.1206 -82.8383 337° Northwest 355 409 18,200 -950 Descending Atlanta Center
Fri 07:08:21 PM 33.2044 -82.8844 335° Northwest 349 402 18,000 -100 Descending Atlanta Center
Fri 07:09:21 PM 33.3008 -82.9353 336° Northwest 337 388 18,000  Level Atlanta Center
Fri 07:10:21 PM 33.3889 -82.9789 338° Northwest 337 388 18,000 -750 Level Atlanta Center
Fri 07:11:21 PM 33.4769 -83.0228 337° Northwest 343 395 16,500 -1,900 Descending Atlanta Center
Fri 07:12:21 PM 33.5628 -83.0664 337° Northwest 336 387 14,200 -2,250 Descending Atlanta Center
Fri 07:13:21 PM 33.6447 -83.1106 336° Northwest 336 387 12,000 -2,050 Descending Atlanta Center
Fri 07:14:21 PM 33.7181 -83.1497 336° Northwest 330 380 10,100 -1,950 Descending Atlanta Center
Fri 07:15:21 PM 33.7914 -83.1914 335° Northwest 310 357 8,100 -1,050 Descending Atlanta Center
Fri 07:16:21 PM 33.8500 -83.2458 322° Northwest 283 326 8,000 -50 Descending Atlanta Center
Fri 07:17:21 PM 33.9131 -83.3003 324° Northwest 273 314 8,000 -200 Level Atlanta Center
Fri 07:18:21 PM 33.9697 -83.3550 321° Northwest 268 308 7,600 -1,150 Descending Atlanta Center
Fri 07:19:21 PM 34.0286 -83.4122 321° Northwest 268 308 5,700 -1,750 Descending Atlanta Center
Fri 07:20:21 PM 34.0872 -83.4619 325° Northwest 268 308 4,100 -850 Descending Atlanta Center
Fri 07:21:21 PM 34.1397 -83.5167 319° Northwest 255 293 4,000 -31 Descending Atlanta Center
Fri 07:23:33 PM 34.2667 -83.6333 323° Northwest 239 275 4,000  Level Atlanta TRACON
Fri 07:24:33 PM 34.3167 -83.6833 320° Northwest 265 305 4,000 -50 Level Atlanta TRACON
Fri 07:25:33 PM 34.3833 -83.7333 328° Northwest 245 282 3,900 -300 Descending Atlanta TRACON
Fri 07:26:33 PM 34.4167 -83.7000 40° Northeast 199 229 3,400 -400 Descending Atlanta TRACON
Fri 07:27:33 PM 34.4500 -83.6500 51° Northeast 188 216 3,100 -300 Descending Atlanta TRACON

Login

Don't have an account? Register now (free) for customized features, flight alerts, and more!